Time;durP1;ratioP1;P1;durP2;ratioP2;P2;SDS_P1;SDS_P2;PMS_P1;PMS_P2;Temp;Humidity;BMP_temperature;BMP_pressure;BME280_temperature;BME280_humidity;BME280_pressure;Samples;Min_cycle;Max_cycle;Signal;HPM_P1;HPM_P2
2022/10/14 00:00:32;;;;;;;42.83;33.70;;;;;;;;;;5080396;28;20078;-75
2022/10/14 00:02:57;;;;;;;41.05;32.63;;;;;;;;;;5081092;28;20450;-75
2022/10/14 00:05:23;;;;;;;35.53;29.33;;;;;;;;;;5074664;28;20027;-75
2022/10/14 00:07:48;;;;;;;27.45;24.02;;;;;;;;;;5066054;28;20404;-74
2022/10/14 00:10:13;;;;;;;42.70;33.88;;;;;;;;;;5069966;28;20055;-76
2022/10/14 00:12:39;;;;;;;48.22;36.28;;;;;;;;;;5076926;28;20028;-75
2022/10/14 00:15:05;;;;;;;41.22;33.58;;;;;;;;;;5080668;28;20354;-77
2022/10/14 00:17:31;;;;;;;43.25;32.22;;;;;;;;;;5080269;28;20530;-73
2022/10/14 00:19:56;;;;;;;36.78;30.38;;;;;;;;;;5079640;28;20032;-75
2022/10/14 00:22:21;;;;;;;34.55;28.55;;;;;;;;;;5077495;28;20126;-75
2022/10/14 00:24:47;;;;;;;31.27;26.02;;;;;;;;;;5067735;28;20090;-75
2022/10/14 00:27:12;;;;;;;29.70;23.27;;;;;;;;;;5078591;28;20431;-75
2022/10/14 00:29:37;;;;;;;41.65;30.52;;;;;;;;;;5077705;28;20085;-75
2022/10/14 00:32:03;;;;;;;49.53;37.42;;;;;;;;;;5079464;28;20020;-75
2022/10/14 00:34:28;;;;;;;67.05;47.38;;;;;;;;;;5077321;28;21221;-76
2022/10/14 00:36:53;;;;;;;49.10;35.70;;;;;;;;;;5079328;28;20376;-76
2022/10/14 00:39:19;;;;;;;39.05;32.90;;;;;;;;;;5068337;28;20036;-76
2022/10/14 00:41:44;;;;;;;37.05;28.25;;;;;;;;;;5078356;28;20017;-76
2022/10/14 00:44:09;;;;;;;34.00;27.48;;;;;;;;;;5077354;28;20024;-73
2022/10/14 00:46:36;;;;;;;59.92;40.83;;;;;;;;;;5079263;28;20044;-74
2022/10/14 00:49:14;;;;;;;56.85;38.45;;;;;;;;;;5068671;28;20059;-78
2022/10/14 00:51:41;;;;;;;50.20;36.90;;;;;;;;;;5079551;28;20028;-76
2022/10/14 00:54:07;;;;;;;47.35;33.30;;;;;;;;;;5069931;28;20062;-74
2022/10/14 00:56:33;;;;;;;41.38;30.75;;;;;;;;;;5077533;28;20075;-74
2022/10/14 00:59:01;;;;;;;33.45;24.23;;;;;;;;;;5078988;28;20032;-75
2022/10/14 01:01:26;;;;;;;34.00;24.38;;;;;;;;;;5078859;28;21098;-73
2022/10/14 01:03:51;;;;;;;26.50;21.67;;;;;;;;;;5073157;28;20510;-73
2022/10/14 01:06:39;;;;;;;22.95;20.08;;;;;;;;;;5069821;28;20070;-74
2022/10/14 01:09:10;;;;;;;24.13;19.90;;;;;;;;;;5065881;28;20040;-74
2022/10/14 01:11:35;;;;;;;28.45;21.73;;;;;;;;;;5077387;28;20466;-75
2022/10/14 01:14:01;;;;;;;36.45;28.02;;;;;;;;;;5078207;28;20028;-74
2022/10/14 01:16:37;;;;;;;38.53;29.30;;;;;;;;;;5071015;28;20032;-74
2022/10/14 01:19:21;;;;;;;40.50;30.52;;;;;;;;;;5078281;28;20097;-75
2022/10/14 01:22:12;;;;;;;38.88;27.90;;;;;;;;;;5078364;28;20423;-75
2022/10/14 01:24:54;;;;;;;32.22;26.58;;;;;;;;;;5014201;28;20449;-75
2022/10/14 01:27:41;;;;;;;37.55;26.55;;;;;;;;;;5005765;28;20029;-77
2022/10/14 01:30:06;;;;;;;34.75;27.65;;;;;;;;;;5007309;28;20048;-75
2022/10/14 01:32:36;;;;;;;39.75;30.15;;;;;;;;;;4998846;28;20033;-76
2022/10/14 01:35:25;;;;;;;43.53;32.85;;;;;;;;;;5017721;28;20131;-77
2022/10/14 01:38:05;;;;;;;46.00;34.08;;;;;;;;;;5021041;28;20721;-74
2022/10/14 01:40:45;;;;;;;44.22;30.05;;;;;;;;;;5018617;28;20053;-75
2022/10/14 01:43:12;;;;;;;41.20;27.25;;;;;;;;;;5013642;28;20037;-75
2022/10/14 01:45:39;;;;;;;39.90;27.42;;;;;;;;;;5019317;28;20075;-74
2022/10/14 01:48:05;;;;;;;27.40;23.45;;;;;;;;;;5010474;28;20045;-76
2022/10/14 01:50:32;;;;;;;29.27;23.65;;;;;;;;;;5014609;28;20359;-75
2022/10/14 01:53:01;;;;;;;27.70;23.63;;;;;;;;;;5014086;28;20187;-74
2022/10/14 01:55:29;;;;;;;25.15;22.45;;;;;;;;;;5009261;28;20078;-75
2022/10/14 01:57:56;;;;;;;30.73;23.73;;;;;;;;;;5016419;28;20022;-74
2022/10/14 02:00:21;;;;;;;30.90;23.30;;;;;;;;;;5012619;28;20049;-75
2022/10/14 02:02:47;;;;;;;27.27;23.85;;;;;;;;;;5082590;28;20058;-76
2022/10/14 02:05:16;;;;;;;40.85;29.50;;;;;;;;;;5081970;28;20024;-75
2022/10/14 02:07:43;;;;;;;40.05;29.30;;;;;;;;;;5080988;28;20431;-75
2022/10/14 02:10:20;;;;;;;50.90;38.90;;;;;;;;;;5082170;28;20522;-75
2022/10/14 02:12:53;;;;;;;52.85;37.53;;;;;;;;;;5072618;28;20393;-74
2022/10/14 02:15:24;;;;;;;42.35;32.97;;;;;;;;;;5072343;28;20084;-77
2022/10/14 02:17:53;;;;;;;50.83;35.42;;;;;;;;;;5081477;28;20085;-75
2022/10/14 02:20:30;;;;;;;51.22;38.17;;;;;;;;;;5080356;28;20040;-74
2022/10/14 02:23:05;;;;;;;55.42;40.83;;;;;;;;;;5082360;28;20347;-74
2022/10/14 02:25:32;;;;;;;49.22;34.55;;;;;;;;;;5070105;28;20062;-76
2022/10/14 02:27:59;;;;;;;41.17;31.52;;;;;;;;;;5079414;28;20073;-75
2022/10/14 02:30:26;;;;;;;44.65;32.75;;;;;;;;;;5069098;28;20027;-75
2022/10/14 02:32:51;;;;;;;41.42;30.67;;;;;;;;;;5075291;28;20649;-76
2022/10/14 02:35:18;;;;;;;50.40;37.20;;;;;;;;;;5067003;28;20379;-74
2022/10/14 02:37:44;;;;;;;48.72;37.42;;;;;;;;;;5081028;28;20094;-76
2022/10/14 02:40:15;;;;;;;47.72;35.03;;;;;;;;;;5080222;28;20057;-75
2022/10/14 02:42:40;;;;;;;43.80;32.90;;;;;;;;;;5072138;28;20016;-76
2022/10/14 02:45:06;;;;;;;40.55;31.88;;;;;;;;;;5070623;28;20380;-75
2022/10/14 02:47:32;;;;;;;31.92;25.50;;;;;;;;;;5075550;28;20048;-75
2022/10/14 02:49:57;;;;;;;27.92;23.50;;;;;;;;;;5073379;28;20032;-76
2022/10/14 02:52:22;;;;;;;28.50;23.95;;;;;;;;;;5081962;28;20453;-75
2022/10/14 02:54:48;;;;;;;36.42;29.17;;;;;;;;;;5079975;28;20059;-74
2022/10/14 02:57:13;;;;;;;33.53;28.65;;;;;;;;;;5073161;28;20020;-75
2022/10/14 02:59:38;;;;;;;32.58;26.95;;;;;;;;;;5073520;28;20077;-74
2022/10/14 03:02:06;;;;;;;31.10;24.85;;;;;;;;;;5074844;28;20422;-76
2022/10/14 03:04:31;;;;;;;29.20;22.65;;;;;;;;;;5071741;28;20022;-76
2022/10/14 03:06:57;;;;;;;30.60;22.60;;;;;;;;;;5081822;28;20032;-77
2022/10/14 03:09:22;;;;;;;25.38;22.58;;;;;;;;;;5081507;28;20782;-76
2022/10/14 03:11:47;;;;;;;29.45;23.33;;;;;;;;;;5081009;28;20027;-75
2022/10/14 03:14:13;;;;;;;38.30;28.25;;;;;;;;;;5076180;28;20051;-76
2022/10/14 03:16:38;;;;;;;137.57;100.18;;;;;;;;;;5073388;28;20031;-75
2022/10/14 03:19:03;;;;;;;63.75;48.95;;;;;;;;;;5081045;28;20040;-78
2022/10/14 03:21:29;;;;;;;45.10;34.33;;;;;;;;;;5081947;28;20432;-76
2022/10/14 03:23:54;;;;;;;37.30;30.77;;;;;;;;;;5079952;28;20506;-75
2022/10/14 03:26:20;;;;;;;35.13;29.05;;;;;;;;;;5071011;28;20546;-75
2022/10/14 03:28:45;;;;;;;30.55;26.00;;;;;;;;;;5081244;28;20032;-75
2022/10/14 03:31:10;;;;;;;32.45;23.52;;;;;;;;;;5078713;28;20135;-74
2022/10/14 03:33:36;;;;;;;30.58;23.40;;;;;;;;;;5067696;28;20096;-75
2022/10/14 03:36:01;;;;;;;46.55;35.10;;;;;;;;;;5079747;28;20035;-75
2022/10/14 03:38:27;;;;;;;44.28;31.55;;;;;;;;;;5080582;28;20024;-74
2022/10/14 03:40:52;;;;;;;38.97;29.38;;;;;;;;;;5080420;28;20036;-75
2022/10/14 03:43:17;;;;;;;46.60;29.38;;;;;;;;;;5081458;28;20099;-78
2022/10/14 03:45:43;;;;;;;39.40;30.90;;;;;;;;;;5079719;28;20058;-74
2022/10/14 03:48:09;;;;;;;51.10;36.38;;;;;;;;;;5074782;28;20085;-75
2022/10/14 03:50:34;;;;;;;46.47;34.75;;;;;;;;;;5072262;28;20035;-73
2022/10/14 03:52:59;;;;;;;49.15;39.80;;;;;;;;;;5076658;28;20028;-76
2022/10/14 03:55:25;;;;;;;39.90;32.30;;;;;;;;;;5074163;28;20024;-74
2022/10/14 03:57:50;;;;;;;37.45;31.38;;;;;;;;;;5080592;28;20028;-75
2022/10/14 04:00:16;;;;;;;39.42;31.77;;;;;;;;;;5073161;28;20784;-75
2022/10/14 04:02:41;;;;;;;44.90;35.25;;;;;;;;;;5066453;28;20024;-74
2022/10/14 04:05:07;;;;;;;38.85;29.40;;;;;;;;;;5064640;28;20123;-74
2022/10/14 04:07:32;;;;;;;37.63;29.85;;;;;;;;;;5066788;28;20020;-76
2022/10/14 04:09:58;;;;;;;33.17;28.80;;;;;;;;;;5062958;28;20042;-76
2022/10/14 04:12:23;;;;;;;28.52;24.35;;;;;;;;;;5067221;28;20094;-75
2022/10/14 04:14:48;;;;;;;25.40;22.65;;;;;;;;;;5068467;28;20085;-77
2022/10/14 04:17:14;;;;;;;26.27;21.15;;;;;;;;;;5067536;28;20164;-75
2022/10/14 04:19:39;;;;;;;26.55;23.63;;;;;;;;;;5067651;28;20075;-75
2022/10/14 04:22:05;;;;;;;25.40;21.90;;;;;;;;;;5071112;28;20411;-75
2022/10/14 04:24:30;;;;;;;26.00;21.35;;;;;;;;;;5080192;28;20012;-74
2022/10/14 04:26:56;;;;;;;25.70;22.83;;;;;;;;;;5078951;28;20387;-75
2022/10/14 04:29:21;;;;;;;26.77;21.20;;;;;;;;;;5075083;28;20031;-75
2022/10/14 04:31:46;;;;;;;29.02;21.35;;;;;;;;;;5071653;28;20030;-75
2022/10/14 04:34:12;;;;;;;24.58;21.05;;;;;;;;;;5066964;28;20077;-74
2022/10/14 04:36:37;;;;;;;27.70;24.10;;;;;;;;;;5079455;28;20061;-77
2022/10/14 04:39:03;;;;;;;38.00;32.38;;;;;;;;;;5079288;28;20062;-80
2022/10/14 04:41:28;;;;;;;47.08;41.92;;;;;;;;;;5080081;28;20071;-76
2022/10/14 04:43:53;;;;;;;40.63;36.30;;;;;;;;;;5079121;28;20449;-76
2022/10/14 04:46:19;;;;;;;35.70;30.70;;;;;;;;;;5077475;28;20048;-74
2022/10/14 04:48:46;;;;;;;34.53;30.90;;;;;;;;;;5066086;28;20020;-73
2022/10/14 04:51:11;;;;;;;37.75;29.88;;;;;;;;;;5080193;28;20035;-75
2022/10/14 04:53:36;;;;;;;44.63;39.80;;;;;;;;;;5068663;28;20028;-75
2022/10/14 04:56:02;;;;;;;47.83;37.85;;;;;;;;;;5065981;28;20032;-77
2022/10/14 04:58:27;;;;;;;63.55;49.00;;;;;;;;;;5067477;28;20089;-75
2022/10/14 05:00:53;;;;;;;56.90;48.42;;;;;;;;;;5074501;28;20115;-76
2022/10/14 05:03:19;;;;;;;54.78;47.78;;;;;;;;;;5072026;28;20066;-77
2022/10/14 05:05:44;;;;;;;56.50;46.88;;;;;;;;;;5067745;28;20105;-75
2022/10/14 05:08:09;;;;;;;74.78;59.80;;;;;;;;;;5066991;28;20039;-76
2022/10/14 05:10:35;;;;;;;113.55;82.43;;;;;;;;;;5067522;28;20442;-77
2022/10/14 05:13:00;;;;;;;156.95;104.50;;;;;;;;;;5080602;28;20330;-78
2022/10/14 05:15:25;;;;;;;107.85;75.63;;;;;;;;;;5080935;28;20024;-77
2022/10/14 05:17:51;;;;;;;59.25;44.80;;;;;;;;;;5080669;28;20024;-78
2022/10/14 05:20:16;;;;;;;34.90;30.35;;;;;;;;;;5070751;28;20032;-76
2022/10/14 05:22:42;;;;;;;45.53;40.58;;;;;;;;;;5076217;28;20051;-77
2022/10/14 05:25:08;;;;;;;63.45;53.25;;;;;;;;;;5079720;28;20107;-77
2022/10/14 05:27:33;;;;;;;64.65;50.65;;;;;;;;;;5078726;28;20111;-76
2022/10/14 05:29:59;;;;;;;49.20;43.60;;;;;;;;;;5080922;28;20031;-77
2022/10/14 05:32:24;;;;;;;85.13;65.97;;;;;;;;;;5078912;28;20347;-77
2022/10/14 05:34:49;;;;;;;86.28;70.88;;;;;;;;;;5074929;28;20126;-77
2022/10/14 05:37:15;;;;;;;89.40;76.82;;;;;;;;;;5067844;28;20050;-77
2022/10/14 05:39:40;;;;;;;141.18;88.32;;;;;;;;;;5074210;28;20350;-77
2022/10/14 05:42:06;;;;;;;107.13;74.35;;;;;;;;;;5078447;28;20086;-75
2022/10/14 05:44:31;;;;;;;76.68;60.33;;;;;;;;;;5068468;28;20020;-77
2022/10/14 05:46:56;;;;;;;58.85;44.65;;;;;;;;;;5065027;28;20051;-76
2022/10/14 05:49:22;;;;;;;42.28;37.47;;;;;;;;;;5066174;28;20028;-77
2022/10/14 05:51:47;;;;;;;36.75;26.40;;;;;;;;;;5064393;28;20035;-76
2022/10/14 05:54:13;;;;;;;34.47;27.45;;;;;;;;;;5066316;28;20016;-77
2022/10/14 05:56:38;;;;;;;48.80;41.55;;;;;;;;;;5066904;28;20090;-76
2022/10/14 05:59:03;;;;;;;45.58;40.58;;;;;;;;;;5067315;28;20359;-76
2022/10/14 06:01:32;;;;;;;45.53;40.42;;;;;;;;;;5066792;28;20160;-77
2022/10/14 06:03:57;;;;;;;58.38;47.45;;;;;;;;;;5067511;28;20460;-77
2022/10/14 06:06:22;;;;;;;69.43;56.65;;;;;;;;;;5065701;28;20099;-79
2022/10/14 06:08:48;;;;;;;47.70;41.78;;;;;;;;;;5066652;28;20447;-78
2022/10/14 06:11:13;;;;;;;44.88;36.13;;;;;;;;;;5064827;28;20016;-76
2022/10/14 06:13:38;;;;;;;41.80;35.67;;;;;;;;;;5066646;28;20062;-75
2022/10/14 06:16:05;;;;;;;48.03;39.30;;;;;;;;;;5067475;28;20047;-75
2022/10/14 06:18:31;;;;;;;46.40;38.60;;;;;;;;;;5066975;28;20032;-76
2022/10/14 06:20:56;;;;;;;44.03;38.42;;;;;;;;;;5066439;28;20842;-76
2022/10/14 06:23:21;;;;;;;48.03;39.25;;;;;;;;;;5070504;28;20020;-76
2022/10/14 06:25:47;;;;;;;41.88;36.92;;;;;;;;;;5069496;28;20057;-76
2022/10/14 06:28:12;;;;;;;45.28;37.80;;;;;;;;;;5068997;28;20390;-76
2022/10/14 06:30:37;;;;;;;44.58;39.35;;;;;;;;;;5070445;28;20126;-77
2022/10/14 06:33:03;;;;;;;46.95;40.28;;;;;;;;;;5070425;28;20455;-77
2022/10/14 06:35:28;;;;;;;45.58;39.03;;;;;;;;;;5070288;28;20324;-76
2022/10/14 06:37:54;;;;;;;49.72;38.60;;;;;;;;;;5067616;28;20355;-76
2022/10/14 06:40:19;;;;;;;52.85;42.05;;;;;;;;;;5069850;28;20097;-77
2022/10/14 06:42:45;;;;;;;40.90;34.35;;;;;;;;;;5069312;28;20134;-77
2022/10/14 06:45:10;;;;;;;52.15;42.92;;;;;;;;;;5068229;28;21357;-76
2022/10/14 06:47:35;;;;;;;41.53;35.17;;;;;;;;;;5067927;28;20380;-77
2022/10/14 06:50:01;;;;;;;40.63;36.08;;;;;;;;;;5082166;28;20028;-77
2022/10/14 06:52:26;;;;;;;51.80;43.90;;;;;;;;;;5081972;28;20130;-77
2022/10/14 06:54:51;;;;;;;39.80;34.70;;;;;;;;;;5080861;28;20435;-76
2022/10/14 06:57:17;;;;;;;39.22;32.20;;;;;;;;;;5081012;28;20047;-76
2022/10/14 06:59:43;;;;;;;45.28;34.35;;;;;;;;;;5081465;28;20036;-77
2022/10/14 07:02:09;;;;;;;80.50;57.78;;;;;;;;;;5080368;28;20012;-77
2022/10/14 07:04:34;;;;;;;43.20;32.50;;;;;;;;;;5080980;28;20042;-77
2022/10/14 07:07:01;;;;;;;44.25;35.22;;;;;;;;;;5081826;28;20347;-77
2022/10/14 07:09:27;;;;;;;42.45;34.00;;;;;;;;;;5081344;28;20032;-76
2022/10/14 07:11:52;;;;;;;43.95;32.22;;;;;;;;;;5072796;28;20077;-76
2022/10/14 07:14:18;;;;;;;40.58;32.50;;;;;;;;;;5075685;28;20043;-77
2022/10/14 07:16:43;;;;;;;41.78;31.65;;;;;;;;;;5067100;28;20024;-78
2022/10/14 07:19:08;;;;;;;42.92;32.25;;;;;;;;;;5076747;28;20131;-76
2022/10/14 07:21:34;;;;;;;45.78;34.90;;;;;;;;;;5081079;28;20118;-77
2022/10/14 07:23:59;;;;;;;38.28;32.35;;;;;;;;;;5072098;28;20331;-77
2022/10/14 07:26:25;;;;;;;36.95;29.83;;;;;;;;;;5067827;28;20024;-77
2022/10/14 07:28:50;;;;;;;39.95;30.48;;;;;;;;;;5068599;28;20030;-77
2022/10/14 07:31:15;;;;;;;38.08;30.30;;;;;;;;;;5067528;28;20035;-77
2022/10/14 07:33:41;;;;;;;38.97;29.90;;;;;;;;;;5067338;28;20393;-75
2022/10/14 07:36:08;;;;;;;35.97;28.52;;;;;;;;;;5071059;28;20481;-79
2022/10/14 07:38:34;;;;;;;31.65;27.73;;;;;;;;;;5069947;28;20092;-77
2022/10/14 07:41:01;;;;;;;31.05;27.65;;;;;;;;;;5072042;28;20032;-74
2022/10/14 07:43:26;;;;;;;36.15;27.00;;;;;;;;;;5079983;28;20036;-76
2022/10/14 07:45:59;;;;;;;33.35;24.48;;;;;;;;;;5075658;28;20097;-75
2022/10/14 07:48:24;;;;;;;28.38;24.48;;;;;;;;;;5068722;28;20032;-74
2022/10/14 07:50:50;;;;;;;29.20;24.10;;;;;;;;;;5078235;28;20355;-75
2022/10/14 07:53:18;;;;;;;29.98;24.83;;;;;;;;;;5080279;28;20031;-76
2022/10/14 07:55:50;;;;;;;32.13;25.48;;;;;;;;;;5077752;28;20099;-76
2022/10/14 07:58:16;;;;;;;25.90;23.10;;;;;;;;;;5067111;28;20085;-75
2022/10/14 08:00:42;;;;;;;28.42;23.30;;;;;;;;;;5067781;28;20032;-75
2022/10/14 08:03:07;;;;;;;27.40;22.38;;;;;;;;;;5072282;28;20035;-75
2022/10/14 08:05:32;;;;;;;32.85;23.15;;;;;;;;;;5068152;28;20023;-75
2022/10/14 08:07:58;;;;;;;27.02;23.25;;;;;;;;;;5069207;28;20106;-76
2022/10/14 08:10:23;;;;;;;32.72;22.00;;;;;;;;;;5067513;28;20050;-77
2022/10/14 08:12:49;;;;;;;26.25;22.17;;;;;;;;;;5067131;28;20077;-76
2022/10/14 08:15:15;;;;;;;26.52;22.63;;;;;;;;;;5065619;28;20028;-75
2022/10/14 08:17:40;;;;;;;31.83;26.52;;;;;;;;;;5066987;28;20061;-76
2022/10/14 08:20:06;;;;;;;26.33;21.70;;;;;;;;;;5067533;28;20036;-75
2022/10/14 08:22:31;;;;;;;25.90;21.60;;;;;;;;;;5065421;28;20362;-74
2022/10/14 08:24:56;;;;;;;23.83;19.92;;;;;;;;;;5069378;28;20053;-76
2022/10/14 08:27:22;;;;;;;27.92;21.63;;;;;;;;;;5066501;28;20027;-75
2022/10/14 08:29:47;;;;;;;31.23;20.42;;;;;;;;;;5066654;28;20514;-76
2022/10/14 08:32:13;;;;;;;24.15;20.42;;;;;;;;;;5067852;28;20494;-76
2022/10/14 08:34:39;;;;;;;26.13;19.25;;;;;;;;;;5068927;28;20750;-75
2022/10/14 08:37:04;;;;;;;23.15;18.98;;;;;;;;;;5065648;28;20020;-75
2022/10/14 08:39:29;;;;;;;24.15;18.08;;;;;;;;;;5069030;28;20035;-75
2022/10/14 08:42:03;;;;;;;21.10;18.45;;;;;;;;;;5066484;28;20028;-75
2022/10/14 08:44:55;;;;;;;22.17;17.88;;;;;;;;;;5067691;28;20028;-76
2022/10/14 08:47:25;;;;;;;21.40;16.77;;;;;;;;;;5064089;28;20098;-74
2022/10/14 08:49:51;;;;;;;23.13;17.10;;;;;;;;;;5066868;28;20503;-77
2022/10/14 08:52:22;;;;;;;19.52;16.30;;;;;;;;;;5066676;28;20059;-75
2022/10/14 08:54:50;;;;;;;18.13;16.23;;;;;;;;;;5068444;28;20024;-76
2022/10/14 08:57:20;;;;;;;20.83;15.93;;;;;;;;;;5065969;28;20272;-76
2022/10/14 08:59:46;;;;;;;20.73;15.55;;;;;;;;;;5065934;28;20360;-75
2022/10/14 09:02:19;;;;;;;19.65;14.68;;;;;;;;;;5067546;28;20024;-75
2022/10/14 09:04:44;;;;;;;20.65;14.23;;;;;;;;;;5067618;28;20101;-77
2022/10/14 09:07:15;;;;;;;20.27;13.60;;;;;;;;;;5068497;28;20065;-74
2022/10/14 09:09:42;;;;;;;20.15;15.05;;;;;;;;;;5068819;28;20051;-76
2022/10/14 09:12:11;;;;;;;16.77;13.07;;;;;;;;;;5068099;28;20039;-77
2022/10/14 09:14:38;;;;;;;17.75;13.15;;;;;;;;;;5067531;28;20031;-75
2022/10/14 09:17:11;;;;;;;20.17;13.73;;;;;;;;;;5067955;28;20051;-76
2022/10/14 09:19:40;;;;;;;17.55;14.18;;;;;;;;;;5067357;28;20404;-77
2022/10/14 09:22:10;;;;;;;21.42;15.93;;;;;;;;;;5067537;28;20367;-76
2022/10/14 09:24:36;;;;;;;23.38;19.80;;;;;;;;;;5068978;28;20111;-76
2022/10/14 09:27:01;;;;;;;16.20;12.90;;;;;;;;;;5078608;28;20127;-76
2022/10/14 09:29:28;;;;;;;15.70;13.90;;;;;;;;;;5069905;28;20106;-75
2022/10/14 09:31:58;;;;;;;14.82;12.25;;;;;;;;;;5066896;28;20053;-75
2022/10/14 09:34:34;;;;;;;15.32;11.18;;;;;;;;;;5066795;28;20040;-75
2022/10/14 09:37:05;;;;;;;19.25;11.68;;;;;;;;;;5067581;28;20031;-75
2022/10/14 09:39:32;;;;;;;12.15;10.82;;;;;;;;;;5069488;28;20028;-75
2022/10/14 09:41:58;;;;;;;14.23;10.90;;;;;;;;;;5080140;28;20020;-78
2022/10/14 09:44:24;;;;;;;13.75;10.57;;;;;;;;;;5078715;28;20085;-76
2022/10/14 09:46:52;;;;;;;13.43;9.70;;;;;;;;;;5078887;28;20141;-76
2022/10/14 09:49:22;;;;;;;12.50;9.52;;;;;;;;;;5078466;28;20031;-77
2022/10/14 09:51:48;;;;;;;12.50;9.57;;;;;;;;;;5067744;28;20028;-74
2022/10/14 09:54:23;;;;;;;10.13;8.73;;;;;;;;;;5065281;28;20467;-76
2022/10/14 09:56:49;;;;;;;12.82;9.38;;;;;;;;;;5067414;28;21014;-75
2022/10/14 09:59:16;;;;;;;10.00;8.73;;;;;;;;;;5069647;28;20036;-74
2022/10/14 10:01:47;;;;;;;10.93;8.82;;;;;;;;;;5071547;28;20039;-75
2022/10/14 10:04:33;;;;;;;10.15;9.10;;;;;;;;;;5070167;28;21014;-74
2022/10/14 10:07:00;;;;;;;9.88;8.43;;;;;;;;;;5069647;28;20333;-75
2022/10/14 10:09:25;;;;;;;11.05;8.32;;;;;;;;;;5069443;28;20039;-73
2022/10/14 10:11:50;;;;;;;10.07;7.60;;;;;;;;;;5068647;28;20023;-74
2022/10/14 10:14:32;;;;;;;10.73;8.30;;;;;;;;;;5068763;28;20051;-73
2022/10/14 10:17:06;;;;;;;16.80;8.27;;;;;;;;;;5070407;28;20028;-74
2022/10/14 10:19:35;;;;;;;11.90;7.70;;;;;;;;;;5071610;28;20031;-74
2022/10/14 10:22:18;;;;;;;12.85;8.43;;;;;;;;;;5069935;28;20450;-76
2022/10/14 10:24:47;;;;;;;8.68;7.43;;;;;;;;;;5070811;28;20024;-73
2022/10/14 10:27:35;;;;;;;15.30;7.75;;;;;;;;;;5075677;28;20099;-74
2022/10/14 10:30:16;;;;;;;9.73;6.85;;;;;;;;;;5070840;28;20063;-75
2022/10/14 10:32:53;;;;;;;15.95;8.10;;;;;;;;;;5069121;28;20103;-75
2022/10/14 10:35:19;;;;;;;9.07;6.70;;;;;;;;;;5069912;28;20024;-75
2022/10/14 10:37:54;;;;;;;12.75;7.13;;;;;;;;;;5079971;28;20039;-73
2022/10/14 10:40:34;;;;;;;9.50;6.20;;;;;;;;;;5082171;28;20036;-75
2022/10/14 10:43:06;;;;;;;8.13;6.15;;;;;;;;;;5070107;28;20036;-74
2022/10/14 10:45:37;;;;;;;11.55;7.60;;;;;;;;;;5068956;28;20103;-76
2022/10/14 10:48:20;;;;;;;12.05;6.30;;;;;;;;;;5068426;28;20036;-75
2022/10/14 10:50:57;;;;;;;9.23;6.15;;;;;;;;;;5069856;28;20066;-75
2022/10/14 10:53:29;;;;;;;15.60;7.25;;;;;;;;;;5069125;28;20032;-74
2022/10/14 10:55:57;;;;;;;7.82;6.40;;;;;;;;;;5069989;28;20039;-76
2022/10/14 10:58:47;;;;;;;11.80;5.95;;;;;;;;;;5069222;28;20032;-74
2022/10/14 11:01:13;;;;;;;14.80;5.65;;;;;;;;;;5069179;28;20262;-75
2022/10/14 11:03:38;;;;;;;7.03;5.70;;;;;;;;;;5068995;28;20439;-76
2022/10/14 11:06:03;;;;;;;9.88;5.90;;;;;;;;;;5068276;28;20020;-76
2022/10/14 11:14:17;;;;;;;8.77;6.60;;;;;;;;;;5077007;28;20090;-75
2022/10/14 11:16:51;;;;;;;8.65;5.88;;;;;;;;;;5067675;28;20041;-75
2022/10/14 11:19:20;;;;;;;6.13;5.22;;;;;;;;;;5068184;28;20036;-75
2022/10/14 11:22:03;;;;;;;6.50;4.90;;;;;;;;;;5068990;28;20081;-75
2022/10/14 11:24:41;;;;;;;6.68;5.20;;;;;;;;;;5071786;28;20067;-75
2022/10/14 11:27:30;;;;;;;6.75;5.78;;;;;;;;;;5081019;28;21258;-76
2022/10/14 11:29:56;;;;;;;7.85;5.38;;;;;;;;;;5081808;28;20451;-75
2022/10/14 11:32:31;;;;;;;8.80;5.18;;;;;;;;;;5081487;28;20499;-74
2022/10/14 11:35:16;;;;;;;13.13;5.63;;;;;;;;;;5081181;28;20020;-77
2022/10/14 11:37:47;;;;;;;13.57;5.05;;;;;;;;;;5079702;28;20035;-74
2022/10/14 11:40:12;;;;;;;8.45;5.38;;;;;;;;;;5080597;28;20057;-74
2022/10/14 11:42:37;;;;;;;8.10;4.85;;;;;;;;;;5075834;28;20028;-75
2022/10/14 11:45:15;;;;;;;8.20;4.80;;;;;;;;;;5066736;28;20024;-77
2022/10/14 11:47:42;;;;;;;8.50;5.10;;;;;;;;;;5066803;28;20071;-77
2022/10/14 11:50:19;;;;;;;12.05;4.70;;;;;;;;;;5072519;28;20059;-74
2022/10/14 11:52:48;;;;;;;6.95;5.20;;;;;;;;;;5080552;28;20024;-74
2022/10/14 11:55:22;;;;;;;10.05;5.13;;;;;;;;;;5068490;28;20030;-77
2022/10/14 11:57:47;;;;;;;6.80;5.18;;;;;;;;;;5079709;28;20039;-73
2022/10/14 12:00:15;;;;;;;11.68;5.22;;;;;;;;;;5081987;28;20048;-74
2022/10/14 12:02:41;;;;;;;6.75;5.40;;;;;;;;;;5081778;28;20032;-75
2022/10/14 12:05:15;;;;;;;7.68;4.93;;;;;;;;;;5079048;28;20089;-75
2022/10/14 12:07:49;;;;;;;6.40;4.82;;;;;;;;;;5081846;28;20024;-75
2022/10/14 12:10:25;;;;;;;8.57;4.75;;;;;;;;;;5080808;28;20102;-76
2022/10/14 12:12:51;;;;;;;9.35;4.95;;;;;;;;;;5081350;28;20020;-75
2022/10/14 12:15:19;;;;;;;6.32;4.55;;;;;;;;;;5071490;28;21212;-76
2022/10/14 12:17:52;;;;;;;8.85;5.20;;;;;;;;;;5066881;28;20035;-78
2022/10/14 12:20:17;;;;;;;7.18;4.72;;;;;;;;;;5068232;28;20408;-76
2022/10/14 12:22:44;;;;;;;8.20;6.28;;;;;;;;;;5067289;28;20161;-74
2022/10/14 12:25:13;;;;;;;8.52;5.40;;;;;;;;;;5067588;28;20031;-76
2022/10/14 12:27:38;;;;;;;6.30;4.93;;;;;;;;;;5068240;28;20027;-77
2022/10/14 12:30:24;;;;;;;7.65;5.15;;;;;;;;;;5066231;28;20133;-74
2022/10/14 12:33:21;;;;;;;11.93;5.43;;;;;;;;;;5080372;28;20032;-76
2022/10/14 12:35:47;;;;;;;11.13;5.47;;;;;;;;;;5008545;28;20134;-74
2022/10/14 12:38:12;;;;;;;11.55;7.57;;;;;;;;;;5020699;28;20124;-75
2022/10/14 12:40:38;;;;;;;8.80;6.97;;;;;;;;;;5011804;28;20112;-74
2022/10/14 12:43:18;;;;;;;9.65;5.05;;;;;;;;;;5009121;28;20025;-75
2022/10/14 12:46:09;;;;;;;6.50;5.18;;;;;;;;;;5010138;28;20091;-78
2022/10/14 12:48:36;;;;;;;8.07;5.35;;;;;;;;;;5007357;28;20037;-76
2022/10/14 12:51:09;;;;;;;7.65;5.03;;;;;;;;;;5010811;28;20048;-76
2022/10/14 12:53:35;;;;;;;6.15;4.30;;;;;;;;;;5021433;28;20471;-76
2022/10/14 12:56:02;;;;;;;11.82;4.60;;;;;;;;;;5012127;28;20025;-76
2022/10/14 12:58:34;;;;;;;7.55;4.60;;;;;;;;;;5008110;28;20053;-77
2022/10/14 13:01:02;;;;;;;6.15;4.20;;;;;;;;;;5017648;28;24177;-77
2022/10/14 13:03:30;;;;;;;10.07;4.53;;;;;;;;;;5007960;28;20040;-75
2022/10/14 13:06:18;;;;;;;6.05;4.22;;;;;;;;;;5008722;28;20056;-78
2022/10/14 13:09:04;;;;;;;7.07;4.45;;;;;;;;;;5000924;28;20044;-77
2022/10/14 13:11:29;;;;;;;7.25;4.80;;;;;;;;;;5039886;28;20167;-76
2022/10/14 13:13:58;;;;;;;5.95;5.05;;;;;;;;;;5065783;28;20036;-76
2022/10/14 13:16:24;;;;;;;6.78;4.85;;;;;;;;;;5080185;28;20175;-76
2022/10/14 13:18:59;;;;;;;8.25;4.70;;;;;;;;;;5079117;28;20487;-76
2022/10/14 13:21:26;;;;;;;7.53;5.38;;;;;;;;;;5079941;28;20150;-78
2022/10/14 13:23:53;;;;;;;7.57;4.93;;;;;;;;;;5074643;28;20055;-77
2022/10/14 13:26:21;;;;;;;5.82;4.57;;;;;;;;;;5066796;28;20024;-75
2022/10/14 13:28:54;;;;;;;9.98;4.32;;;;;;;;;;5064517;28;20447;-74
2022/10/14 13:31:28;;;;;;;5.43;4.68;;;;;;;;;;5067674;28;20339;-75
2022/10/14 13:34:00;;;;;;;7.05;4.30;;;;;;;;;;5070441;28;20351;-74
2022/10/14 13:36:35;;;;;;;18.52;5.22;;;;;;;;;;5070554;28;20020;-74
2022/10/14 13:39:01;;;;;;;6.25;4.70;;;;;;;;;;5070408;28;20020;-75
2022/10/14 13:41:27;;;;;;;8.93;6.30;;;;;;;;;;5070577;28;20032;-75
2022/10/14 13:43:54;;;;;;;7.70;5.15;;;;;;;;;;5069452;28;20042;-75
2022/10/14 13:46:40;;;;;;;6.40;5.53;;;;;;;;;;5069346;28;20105;-75
2022/10/14 13:49:06;;;;;;;6.82;5.40;;;;;;;;;;5068894;28;20023;-75
2022/10/14 13:51:47;;;;;;;8.32;5.97;;;;;;;;;;5068552;28;20241;-75
2022/10/14 13:54:20;;;;;;;7.43;5.60;;;;;;;;;;5068159;28;20024;-77
2022/10/14 13:57:03;;;;;;;12.32;6.20;;;;;;;;;;5069809;28;20054;-75
2022/10/14 13:59:28;;;;;;;9.00;5.07;;;;;;;;;;5070962;28;20055;-75
2022/10/14 14:01:56;;;;;;;9.02;5.53;;;;;;;;;;5069406;28;20419;-73
2022/10/14 14:04:33;;;;;;;10.80;5.30;;;;;;;;;;5069007;28;20046;-77
2022/10/14 14:06:59;;;;;;;12.45;5.35;;;;;;;;;;5070179;28;20020;-74
2022/10/14 14:09:26;;;;;;;7.53;5.55;;;;;;;;;;5070829;28;20024;-72
2022/10/14 14:11:53;;;;;;;13.30;10.32;;;;;;;;;;5072526;28;20016;-75
2022/10/14 14:14:32;;;;;;;25.08;19.23;;;;;;;;;;5071030;28;20043;-72
2022/10/14 14:16:58;;;;;;;14.63;8.30;;;;;;;;;;5069983;28;20043;-73
2022/10/14 14:19:25;;;;;;;11.23;7.90;;;;;;;;;;5070825;28;20036;-72
2022/10/14 14:21:50;;;;;;;14.15;8.77;;;;;;;;;;5082736;28;20016;-75
2022/10/14 14:24:17;;;;;;;8.57;6.38;;;;;;;;;;5082439;28;20139;-75
2022/10/14 14:26:43;;;;;;;16.08;8.07;;;;;;;;;;5083291;28;20028;-75
2022/10/14 14:29:18;;;;;;;8.93;5.93;;;;;;;;;;5082948;28;20020;-76
2022/10/14 14:31:45;;;;;;;8.23;5.03;;;;;;;;;;5082278;28;20027;-75
2022/10/14 14:34:21;;;;;;;9.93;6.30;;;;;;;;;;5072004;28;20039;-76
2022/10/14 14:36:46;;;;;;;8.52;6.47;;;;;;;;;;5070639;28;20028;-74